Jomi — C6VK4 — position and weather

sailwx.info

Track history (hours):
 
Tides and Currents Weather Stations Pressure Air Temp Water Temp Dewpoint Dewpoint Depression Visibility Wind Speed Wind Dir Waves Ship Positions

Jomi

Last reported at 2017-Aug-22 23:43 UTC. Time now 2017-Aug-23 05:54 UTC.
Position N 57°21' E 011°29'.

Length 88 m; draft 6.3 m.

Type: Cargo ship. MMSI: 309701000.

Date/timePositionNaut miles runAvg speedWind from/ knotsBaromVisibWave heightAir tempDewpointWater temp
2017-Aug-22 23:43N 57°21' E 011°29'2 9.4
2017-Aug-22 23:29N 57°22' E 011°28'4 9.2
2017-Aug-22 23:01N 57°26' E 011°23'4 8.6
2017-Aug-22 22:30N 57°30' E 011°19'4 8.9
2017-Aug-22 22:00N 57°33' E 011°13'5 9.1
2017-Aug-22 21:30N 57°36' E 011°06'5 9.4
2017-Aug-22 21:00N 57°39' E 011°00'5 9.6
2017-Aug-22 20:31N 57°43' E 010°54'5 9.4
2017-Aug-22 19:59N 57°46' E 010°48'4 8.8
2017-Aug-22 19:30N 57°47' E 010°40'5 9.3
2017-Aug-22 19:00N 57°47' E 010°31'5 9.1
2017-Aug-22 18:30N 57°47' E 010°23'61 8.7
2017-Aug-22 11:34N 57°56' E 008°30'1 7.8
2017-Aug-22 11:30N 57°56' E 008°29'4 7.7
2017-Aug-22 11:00N 57°55' E 008°22'4 7.6
2017-Aug-22 10:30N 57°55' E 008°14'4 7.5
2017-Aug-22 10:00N 57°55' E 008°07'4 7.4
2017-Aug-22 09:31N 57°54' E 008°01'4 7.5
2017-Aug-22 09:00N 57°54' E 007°53'4 8.0
2017-Aug-22 08:30N 57°54' E 007°46'4 8.0
2017-Aug-22 08:00N 57°54' E 007°38'4 8.1
2017-Aug-22 07:30N 57°54' E 007°31'4 7.9
2017-Aug-22 07:00N 57°54' E 007°23'4 8.3
2017-Aug-22 06:30N 57°54' E 007°15'4 9.1
2017-Aug-22 06:01N 57°54' E 007°07'4 8.1
2017-Aug-22 05:31N 57°55' E 006°60'4 8.3
2017-Aug-22 05:00N 57°57' E 006°52'4 8.9
2017-Aug-22 04:31N 57°58' E 006°45'4 8.9
2017-Aug-22 04:00N 57°60' E 006°37'5 9.0
2017-Aug-22 03:30N 58°03' E 006°30'5 9.4
2017-Aug-22 03:00N 58°06' E 006°23'5 9.7
2017-Aug-22 02:30N 58°09' E 006°16'510.2
2017-Aug-22 02:00N 58°13' E 006°10'510.0
2017-Aug-22 01:30N 58°16' E 006°03'510.3
2017-Aug-22 01:01N 58°20' E 005°56'5 9.8
2017-Aug-22 00:30N 58°23' E 005°49'510.2
2017-Aug-22 00:00N 58°27' E 005°42'510.1
2017-Aug-21 23:30N 58°30' E 005°36'5 9.6
2017-Aug-21 23:00N 58°34' E 005°30'510.2
2017-Aug-21 22:31N 58°38' E 005°25'510.3
2017-Aug-21 22:01N 58°43' E 005°19'510.0
2017-Aug-21 21:31N 58°48' E 005°16'5 9.6
2017-Aug-21 21:01N 58°52' E 005°14'5 9.0
2017-Aug-21 20:31N 58°57' E 005°12'4 9.0
2017-Aug-21 20:01N 59°00' E 005°07'4 8.7
2017-Aug-21 19:31N 59°04' E 005°01'4 8.3
2017-Aug-21 19:00N 59°06' E 004°55'20 6.9
2017-Aug-21 16:11N 59°25' E 004°44'2 8.5
2017-Aug-21 16:00N 59°27' E 004°45'4 8.6
2017-Aug-21 15:31N 59°31' E 004°46'4 8.6
2017-Aug-21 15:00N 59°35' E 004°47'4 8.9
2017-Aug-21 14:30N 59°39' E 004°48'4 8.8
2017-Aug-21 14:01N 59°44' E 004°50'4 8.4
2017-Aug-21 13:30N 59°48' E 004°51'5 9.0
2017-Aug-21 13:00N 59°52' E 004°52'5 9.1
2017-Aug-21 12:30N 59°57' E 004°53'5 9.3
2017-Aug-21 12:01N 60°02' E 004°55'5 9.3
2017-Aug-21 11:30N 60°06' E 004°56'4 7.7
2017-Aug-21 11:00N 60°09' E 005°02'4 8.8
2017-Aug-21 10:30N 60°11' E 005°10'510.1
2017-Aug-21 10:01N 60°16' E 005°09'5 9.7
2017-Aug-21 09:30N 60°21' E 005°10'4 8.8
2017-Aug-21 09:00N 60°24' E 005°15'5 9.8
2017-Aug-21 08:31N 60°29' E 005°15'4 8.5
2017-Aug-21 08:00N 60°33' E 005°19'510.2
2017-Aug-21 07:30N 60°36' E 005°28'4 9.2
2017-Aug-21 07:01N 60°39' E 005°35'3 6.4
2017-Aug-21 06:31N 60°42' E 005°33'0 0.0
2017-Aug-21 05:52N 60°42' E 005°33'0 0.0
2017-Aug-21 05:28N 60°42' E 005°33'0 0.0
2017-Aug-21 04:58N 60°42' E 005°33'0 0.0
2017-Aug-21 04:28N 60°42' E 005°33'0 0.0
2017-Aug-21 03:49N 60°42' E 005°33'0 0.0
2017-Aug-21 03:28N 60°42' E 005°33'0 0.0
2017-Aug-21 02:55N 60°42' E 005°33'0 0.0
2017-Aug-21 02:07N 60°42' E 005°33'0 0.0
2017-Aug-21 01:58N 60°42' E 005°33'0 0.0
2017-Aug-21 01:25N 60°42' E 005°33'0 0.0
2017-Aug-21 00:52N 60°42' E 005°33'0 0.0
2017-Aug-21 00:28N 60°42' E 005°33'0 0.0
2017-Aug-20 23:49N 60°42' E 005°33'0 0.0
2017-Aug-20 23:25N 60°42' E 005°33'0 0.0
2017-Aug-20 22:34N 60°42' E 005°33'0 0.0
2017-Aug-20 22:16N 60°42' E 005°33'0 0.0
2017-Aug-20 21:58N 60°42' E 005°33'0 0.0
2017-Aug-20 21:28N 60°42' E 005°33'0 0.0
2017-Aug-20 20:58N 60°42' E 005°33'0 0.0
2017-Aug-20 20:28N 60°42' E 005°33'0 0.0
2017-Aug-20 19:52N 60°42' E 005°33'0 0.0
2017-Aug-20 18:49N 60°42' E 005°33'0 0.0
2017-Aug-20 11:39N 60°42' E 005°33'0 0.0
2017-Aug-20 11:30N 60°42' E 005°33'0 0.0
2017-Aug-20 10:59N 60°42' E 005°33'0 0.9
2017-Aug-20 10:30N 60°42' E 005°34'0 0.1
2017-Aug-20 10:00N 60°42' E 005°34'0 0.0
2017-Aug-20 09:30N 60°42' E 005°34'0 0.0
2017-Aug-20 09:00N 60°42' E 005°34'0 0.1
2017-Aug-20 08:30N 60°42' E 005°34'0 0.1
2017-Aug-20 07:59N 60°42' E 005°34'0 0.1
2017-Aug-20 07:30N 60°42' E 005°34'0 0.2
2017-Aug-20 07:00N 60°41' E 005°34'0 0.2
2017-Aug-20 06:29N 60°41' E 005°34'0 0.6
2017-Aug-20 06:00N 60°41' E 005°34'3 5.5
2017-Aug-20 05:30N 60°38' E 005°35'3 6.0
2017-Aug-20 05:00N 60°37' E 005°30'4 7.0
2017-Aug-20 04:30N 60°34' E 005°24'510.3
2017-Aug-20 04:00N 60°31' E 005°16'510.3
2017-Aug-20 03:30N 60°26' E 005°16'5 9.9
2017-Aug-20 03:00N 60°22' E 005°10'510.9
2017-Aug-20 02:30N 60°16' E 005°10'510.6
2017-Aug-20 02:00N 60°11' E 005°11'5 9.8
2017-Aug-20 01:30N 60°09' E 005°02'5 9.1
2017-Aug-20 01:00N 60°07' E 004°54'3 5.8
2017-Aug-20 00:30N 60°09' E 004°51'3 6.6
2017-Aug-20 00:00N 60°13' E 004°49'0 0.4
2017-Aug-19 23:30N 60°13' E 004°49'510.1
2017-Aug-19 23:00N 60°08' E 004°51'510.3
2017-Aug-19 22:30N 60°03' E 004°52'5 9.7
2017-Aug-19 22:00N 59°58' E 004°53'1 2.4
2017-Aug-19 21:30N 59°59' E 004°53'3 5.9
2017-Aug-19 21:00N 60°02' E 004°53'3 5.6
2017-Aug-19 20:29N 60°05' E 004°53'3 6.2
2017-Aug-19 19:59N 60°08' E 004°52'3 6.1
2017-Aug-19 19:30N 60°11' E 004°52'1 2.5
2017-Aug-19 19:00N 60°10' E 004°53'510.0
2017-Aug-19 18:30N 60°05' E 004°53'510.1
2017-Aug-19 17:59N 59°60' E 004°53'1 2.7
2017-Aug-19 17:30N 60°01' E 004°52'3 5.1
2017-Aug-19 17:00N 60°03' E 004°52'3 5.3
2017-Aug-19 16:30N 60°06' E 004°51'3 5.0
2017-Aug-19 16:00N 60°08' E 004°50'3 5.1
2017-Aug-19 15:30N 60°11' E 004°50'3 5.4
2017-Aug-19 15:00N 60°14' E 004°49'6 5.6
2017-Aug-19 14:00N 60°19' E 004°48'5 9.6
2017-Aug-19 13:30N 60°15' E 004°49'5 9.6
2017-Aug-19 13:00N 60°10' E 004°50'5 9.7
2017-Aug-19 12:30N 60°05' E 004°51'5 9.7
2017-Aug-19 12:00N 60°00' E 004°52'3 6.3
2017-Aug-19 11:30N 59°57' E 004°52'3 6.1
2017-Aug-19 10:59N 60°00' E 004°53'3 5.9
2017-Aug-19 10:29N 60°03' E 004°53'3 5.8
2017-Aug-19 09:59N 60°06' E 004°53'3 5.5
2017-Aug-19 09:30N 60°09' E 004°53'3 5.3
2017-Aug-19 09:00N 60°11' E 004°52'2 4.3
2017-Aug-19 08:30N 60°13' E 004°51'2 3.8
2017-Aug-19 08:00N 60°15' E 004°50'2 3.8
2017-Aug-19 07:30N 60°17' E 004°49'0 0.3
2017-Aug-19 07:00N 60°17' E 004°48'510.8
2017-Aug-19 06:30N 60°12' E 004°51'510.3
2017-Aug-19 06:00N 60°07' E 004°53'0 0.6
2017-Aug-19 05:30N 60°06' E 004°53'3 5.3
2017-Aug-19 05:00N 60°09' E 004°52'3 5.1
2017-Aug-19 04:30N 60°11' E 004°50'3 5.5
2017-Aug-19 04:00N 60°14' E 004°50'2 3.4
2017-Aug-19 03:30N 60°16' E 004°49'510.4
2017-Aug-19 03:00N 60°11' E 004°51'510.4
2017-Aug-19 02:30N 60°06' E 004°53'510.0
2017-Aug-19 02:00N 60°01' E 004°54'5 9.9
2017-Aug-19 01:30N 59°56' E 004°52'5 9.7
2017-Aug-19 00:59N 59°51' E 004°50'5 9.5
2017-Aug-19 00:30N 59°46' E 004°49'5 9.4
2017-Aug-19 00:00N 59°42' E 004°48'5 9.3
2017-Aug-18 23:30N 59°37' E 004°46'5 9.4
2017-Aug-18 23:00N 59°33' E 004°44'36 9.0
2017-Aug-18 19:00N 58°56' E 004°43'4 8.8
2017-Aug-18 18:30N 58°52' E 004°44'4 8.8
2017-Aug-18 18:00N 58°48' E 004°42'5 9.1
2017-Aug-18 17:30N 58°43' E 004°43'4 9.1
2017-Aug-18 17:00N 58°39' E 004°43'33810.4
2017-Aug-17 08:30N 53°00' E 004°21'4110.4
2017-Aug-17 04:33N 52°28' E 003°40'0 9.7
2017-Aug-17 04:30N 52°28' E 003°40'5 9.9
2017-Aug-17 03:59N 52°23' E 003°37'5 9.8
2017-Aug-17 03:30N 52°18' E 003°35'5 9.8
2017-Aug-17 03:00N 52°14' E 003°32'5 9.8
2017-Aug-17 02:30N 52°09' E 003°28'915.0
2017-Aug-17 01:56N 52°01' E 003°24'2 3.9
2017-Aug-17 01:30N 51°59' E 003°24'510.4
2017-Aug-17 01:00N 51°54' E 003°22'510.8
2017-Aug-17 00:30N 51°49' E 003°19'713.1
2017-Aug-17 00:00N 51°43' E 003°18'4 7.9
2017-Aug-16 23:31N 51°39' E 003°20'612.0
2017-Aug-16 23:00N 51°34' E 003°25'612.2
2017-Aug-16 22:30N 51°29' E 003°30'510.3
2017-Aug-16 22:00N 51°26' E 003°37'612.5
2017-Aug-16 21:30N 51°22' E 003°45'3 6.3
2017-Aug-16 21:00N 51°20' E 003°49'0 0.1
2017-Aug-16 20:30N 51°20' E 003°49'3 5.1
2017-Aug-16 20:00N 51°18' E 003°50'4 7.4
2017-Aug-16 19:30N 51°14' E 003°49'4 8.2
2017-Aug-16 19:00N 51°10' E 003°47'0 0.4
2017-Aug-16 18:29N 51°10' E 003°47'0 0.0
2017-Aug-16 17:56N 51°10' E 003°47'0 0.0
2017-Aug-16 17:29N 51°10' E 003°47'0 0.0
2017-Aug-16 16:59N 51°10' E 003°47'0 0.0
2017-Aug-16 16:29N 51°10' E 003°47'0 0.0
2017-Aug-16 15:56N 51°10' E 003°47'0 0.0
2017-Aug-16 15:30N 51°10' E 003°47'0 0.0
2017-Aug-16 15:00N 51°10' E 003°47'0 0.0
2017-Aug-16 14:30N 51°10' E 003°47'0 0.0
2017-Aug-16 14:00N 51°10' E 003°47'0 0.0
2017-Aug-16 13:31N 51°10' E 003°47'0 0.0
2017-Aug-16 13:00N 51°10' E 003°47'0 0.0
2017-Aug-16 12:30N 51°10' E 003°47'0 0.0
2017-Aug-16 12:00N 51°10' E 003°47'0 0.0
2017-Aug-16 11:30N 51°10' E 003°47'0 0.0
2017-Aug-16 11:00N 51°10' E 003°47'0 0.0
2017-Aug-16 10:30N 51°10' E 003°47'0 0.0
2017-Aug-16 10:00N 51°10' E 003°47'0 0.0
2017-Aug-16 09:30N 51°10' E 003°47'0 0.0
2017-Aug-16 09:00N 51°10' E 003°47'0 0.0
2017-Aug-16 08:30N 51°10' E 003°47'0 0.0
2017-Aug-16 08:00N 51°10' E 003°47'0 0.0
2017-Aug-16 07:30N 51°10' E 003°47'0 0.0
2017-Aug-16 07:00N 51°10' E 003°47'0 0.0
2017-Aug-16 06:30N 51°10' E 003°47'0 0.0
2017-Aug-16 06:00N 51°10' E 003°47'0 0.0
2017-Aug-16 05:30N 51°10' E 003°47'0 0.0
2017-Aug-16 05:00N 51°10' E 003°47'0 0.0
2017-Aug-16 04:30N 51°10' E 003°47'0 0.0
2017-Aug-16 04:00N 51°10' E 003°47'0 0.0
2017-Aug-16 03:30N 51°10' E 003°47'0 0.0
2017-Aug-16 03:00N 51°10' E 003°47'0 0.0
2017-Aug-16 02:30N 51°10' E 003°47'0 0.0
2017-Aug-16 02:00N 51°10' E 003°47'0 0.0
2017-Aug-16 01:30N 51°10' E 003°47'0 0.0
2017-Aug-16 01:00N 51°10' E 003°47'0 0.0
2017-Aug-16 00:30N 51°10' E 003°47'0 0.0
2017-Aug-16 00:01N 51°10' E 003°47'0 0.0
2017-Aug-15 23:31N 51°10' E 003°47'0 0.0
2017-Aug-15 23:00N 51°10' E 003°47'0 0.2
2017-Aug-15 22:30N 51°10' E 003°47'2 4.8
2017-Aug-15 22:01N 51°12' E 003°48'3 5.2
2017-Aug-15 21:31N 51°15' E 003°49'3 6.4
2017-Aug-15 21:00N 51°18' E 003°50'2 4.7
2017-Aug-15 20:30N 51°20' E 003°49'0 0.9
2017-Aug-15 20:00N 51°20' E 003°49'1 2.4
2017-Aug-15 19:30N 51°21' E 003°47'510.0
2017-Aug-15 19:00N 51°24' E 003°41'510.2
2017-Aug-15 18:30N 51°25' E 003°33'612.0
2017-Aug-15 18:00N 51°24' E 003°24'612.0
2017-Aug-15 17:30N 51°23' E 003°14'611.9
2017-Aug-15 17:00N 51°22' E 003°05'611.1
2017-Aug-15 16:30N 51°22' E 002°56'611.2
2017-Aug-15 16:00N 51°22' E 002°47'510.4
2017-Aug-15 15:30N 51°22' E 002°39'510.1
2017-Aug-15 15:00N 51°22' E 002°31'5 9.2
2017-Aug-15 14:30N 51°20' E 002°24'5 9.1
2017-Aug-15 14:00N 51°18' E 002°17'6 8.6
2017-Aug-15 13:20N 51°15' E 002°10'3 8.3
2017-Aug-15 13:00N 51°13' E 002°06'4 8.2
2017-Aug-15 12:30N 51°11' E 002°00'4 8.1
2017-Aug-15 12:00N 51°09' E 001°55'4 8.1
2017-Aug-15 11:30N 51°07' E 001°49'4 8.0
2017-Aug-15 11:00N 51°04' E 001°45'4 8.3
2017-Aug-15 10:30N 51°01' E 001°40'71 9.5
2017-Aug-15 03:03N 50°22' E 000°07'311.3
2017-Aug-15 02:48N 50°21' E 000°03'311.4
2017-Aug-15 02:30N 50°20' W 000°03'611.6
2017-Aug-15 01:58N 50°19' W 000°12'612.0
2017-Aug-15 01:30N 50°17' W 000°21'612.3
2017-Aug-15 01:00N 50°16' W 000°30'1612.3
2017-Aug-14 23:41N 50°12' W 000°55'212.0
2017-Aug-14 23:29N 50°11' W 000°58'611.8
2017-Aug-14 23:00N 50°10' W 001°07'611.3
2017-Aug-14 22:30N 50°08' W 001°15'510.7
2017-Aug-14 22:00N 50°07' W 001°23'510.0
2017-Aug-14 21:31N 50°05' W 001°31'5 9.3
2017-Aug-14 21:00N 50°04' W 001°38'4 8.6
2017-Aug-14 20:30N 50°03' W 001°44'4 7.9
2017-Aug-14 20:00N 50°02' W 001°50'4 7.4
2017-Aug-14 19:30N 50°01' W 001°56'3 6.8
2017-Aug-14 19:00N 50°00' W 002°01'3 6.5
2017-Aug-14 18:30N 49°60' W 002°06'3 6.4
2017-Aug-14 18:00N 49°59' W 002°10'3 6.5
2017-Aug-14 17:30N 49°58' W 002°15'3 7.1
2017-Aug-14 17:00N 49°57' W 002°21'4 7.8
2017-Aug-14 16:30N 49°56' W 002°26'4 8.4
2017-Aug-14 16:00N 49°55' W 002°33'4 8.9
2017-Aug-14 15:30N 49°54' W 002°39'5 9.2
2017-Aug-14 15:00N 49°53' W 002°46'5 9.7
2017-Aug-14 14:30N 49°52' W 002°54'5 9.9
2017-Aug-14 14:00N 49°52' W 003°01'510.2
2017-Aug-14 13:30N 49°52' W 003°09'510.2
2017-Aug-14 13:00N 49°52' W 003°17'510.3
2017-Aug-14 12:30N 49°52' W 003°25'510.4
2017-Aug-14 12:00N 49°52' W 003°33'510.4
2017-Aug-14 11:30N 49°52' W 003°41'510.4
2017-Aug-14 11:00N 49°52' W 003°49'510.4
2017-Aug-14 10:30N 49°53' W 003°57'610.5
2017-Aug-14 09:59N 49°53' W 004°06'1110.4
2017-Aug-14 08:54N 49°53' W 004°23'510.3
2017-Aug-14 08:25N 49°53' W 004°31'510.3
2017-Aug-14 07:59N 49°53' W 004°38'136 7.1
2017-Aug-13 12:46N 52°01' W 005°54'2 7.6
2017-Aug-13 12:29N 52°03' W 005°53'3 7.3
2017-Aug-13 12:00N 52°06' W 005°52'4 7.1
2017-Aug-13 11:30N 52°10' W 005°51'4 7.4
2017-Aug-13 11:00N 52°13' W 005°51'4 7.5
2017-Aug-13 10:30N 52°17' W 005°50'4 7.8
2017-Aug-13 10:00N 52°21' W 005°49'4 8.1
2017-Aug-13 09:30N 52°25' W 005°48'  
Track history (hours):
 
Tides and Currents Weather Stations Pressure Air Temp Water Temp Dewpoint Dewpoint Depression Visibility Wind Speed Wind Dir Waves Ship Positions

Jomi

Last reported at 2017-Aug-22 23:43 UTC. Time now 2017-Aug-23 05:54 UTC.
Position N 57°21' E 011°29'.

Length 88 m; draft 6.3 m.

Type: Cargo ship. MMSI: 309701000.

Date/timePositionNaut miles runAvg speedWind from/ knotsBaromVisibWave heightAir tempDewpointWater temp
2017-Aug-22 23:43N 57°21' E 011°29'2 9.4
2017-Aug-22 23:29N 57°22' E 011°28'4 9.2
2017-Aug-22 23:01N 57°26' E 011°23'4 8.6
2017-Aug-22 22:30N 57°30' E 011°19'4 8.9
2017-Aug-22 22:00N 57°33' E 011°13'5 9.1
2017-Aug-22 21:30N 57°36' E 011°06'5 9.4
2017-Aug-22 21:00N 57°39' E 011°00'5 9.6
2017-Aug-22 20:31N 57°43' E 010°54'5 9.4
2017-Aug-22 19:59N 57°46' E 010°48'4 8.8
2017-Aug-22 19:30N 57°47' E 010°40'5 9.3
2017-Aug-22 19:00N 57°47' E 010°31'5 9.1
2017-Aug-22 18:30N 57°47' E 010°23'61 8.7
2017-Aug-22 11:34N 57°56' E 008°30'1 7.8
2017-Aug-22 11:30N 57°56' E 008°29'4 7.7
2017-Aug-22 11:00N 57°55' E 008°22'4 7.6
2017-Aug-22 10:30N 57°55' E 008°14'4 7.5
2017-Aug-22 10:00N 57°55' E 008°07'4 7.4
2017-Aug-22 09:31N 57°54' E 008°01'4 7.5
2017-Aug-22 09:00N 57°54' E 007°53'4 8.0
2017-Aug-22 08:30N 57°54' E 007°46'4 8.0
2017-Aug-22 08:00N 57°54' E 007°38'4 8.1
2017-Aug-22 07:30N 57°54' E 007°31'4 7.9
2017-Aug-22 07:00N 57°54' E 007°23'4 8.3
2017-Aug-22 06:30N 57°54' E 007°15'4 9.1
2017-Aug-22 06:01N 57°54' E 007°07'4 8.1
2017-Aug-22 05:31N 57°55' E 006°60'4 8.3
2017-Aug-22 05:00N 57°57' E 006°52'4 8.9
2017-Aug-22 04:31N 57°58' E 006°45'4 8.9
2017-Aug-22 04:00N 57°60' E 006°37'5 9.0
2017-Aug-22 03:30N 58°03' E 006°30'5 9.4
2017-Aug-22 03:00N 58°06' E 006°23'5 9.7
2017-Aug-22 02:30N 58°09' E 006°16'510.2
2017-Aug-22 02:00N 58°13' E 006°10'510.0
2017-Aug-22 01:30N 58°16' E 006°03'510.3
2017-Aug-22 01:01N 58°20' E 005°56'5 9.8
2017-Aug-22 00:30N 58°23' E 005°49'510.2
2017-Aug-22 00:00N 58°27' E 005°42'510.1
2017-Aug-21 23:30N 58°30' E 005°36'5 9.6
2017-Aug-21 23:00N 58°34' E 005°30'510.2
2017-Aug-21 22:31N 58°38' E 005°25'510.3
2017-Aug-21 22:01N 58°43' E 005°19'510.0
2017-Aug-21 21:31N 58°48' E 005°16'5 9.6
2017-Aug-21 21:01N 58°52' E 005°14'5 9.0
2017-Aug-21 20:31N 58°57' E 005°12'4 9.0
2017-Aug-21 20:01N 59°00' E 005°07'4 8.7
2017-Aug-21 19:31N 59°04' E 005°01'4 8.3
2017-Aug-21 19:00N 59°06' E 004°55'20 6.9
2017-Aug-21 16:11N 59°25' E 004°44'2 8.5
2017-Aug-21 16:00N 59°27' E 004°45'4 8.6
2017-Aug-21 15:31N 59°31' E 004°46'4 8.6
2017-Aug-21 15:00N 59°35' E 004°47'4 8.9
2017-Aug-21 14:30N 59°39' E 004°48'4 8.8
2017-Aug-21 14:01N 59°44' E 004°50'4 8.4
2017-Aug-21 13:30N 59°48' E 004°51'5 9.0
2017-Aug-21 13:00N 59°52' E 004°52'5 9.1
2017-Aug-21 12:30N 59°57' E 004°53'5 9.3
2017-Aug-21 12:01N 60°02' E 004°55'5 9.3
2017-Aug-21 11:30N 60°06' E 004°56'4 7.7
2017-Aug-21 11:00N 60°09' E 005°02'4 8.8
2017-Aug-21 10:30N 60°11' E 005°10'510.1
2017-Aug-21 10:01N 60°16' E 005°09'5 9.7
2017-Aug-21 09:30N 60°21' E 005°10'4 8.8
2017-Aug-21 09:00N 60°24' E 005°15'5 9.8
2017-Aug-21 08:31N 60°29' E 005°15'4 8.5
2017-Aug-21 08:00N 60°33' E 005°19'510.2
2017-Aug-21 07:30N 60°36' E 005°28'4 9.2
2017-Aug-21 07:01N 60°39' E 005°35'3 6.4
2017-Aug-21 06:31N 60°42' E 005°33'0 0.0
2017-Aug-21 05:52N 60°42' E 005°33'0 0.0
2017-Aug-21 05:28N 60°42' E 005°33'0 0.0
2017-Aug-21 04:58N 60°42' E 005°33'0 0.0
2017-Aug-21 04:28N 60°42' E 005°33'0 0.0
2017-Aug-21 03:49N 60°42' E 005°33'0 0.0
2017-Aug-21 03:28N 60°42' E 005°33'0 0.0
2017-Aug-21 02:55N 60°42' E 005°33'0 0.0
2017-Aug-21 02:07N 60°42' E 005°33'0 0.0
2017-Aug-21 01:58N 60°42' E 005°33'0 0.0
2017-Aug-21 01:25N 60°42' E 005°33'0 0.0
2017-Aug-21 00:52N 60°42' E 005°33'0 0.0
2017-Aug-21 00:28N 60°42' E 005°33'0 0.0
2017-Aug-20 23:49N 60°42' E 005°33'0 0.0
2017-Aug-20 23:25N 60°42' E 005°33'0 0.0
2017-Aug-20 22:34N 60°42' E 005°33'0 0.0
2017-Aug-20 22:16N 60°42' E 005°33'0 0.0
2017-Aug-20 21:58N 60°42' E 005°33'0 0.0
2017-Aug-20 21:28N 60°42' E 005°33'0 0.0
2017-Aug-20 20:58N 60°42' E 005°33'0 0.0
2017-Aug-20 20:28N 60°42' E 005°33'0 0.0
2017-Aug-20 19:52N 60°42' E 005°33'0 0.0
2017-Aug-20 18:49N 60°42' E 005°33'0 0.0
2017-Aug-20 11:39N 60°42' E 005°33'0 0.0
2017-Aug-20 11:30N 60°42' E 005°33'0 0.0
2017-Aug-20 10:59N 60°42' E 005°33'0 0.9
2017-Aug-20 10:30N 60°42' E 005°34'0 0.1
2017-Aug-20 10:00N 60°42' E 005°34'0 0.0
2017-Aug-20 09:30N 60°42' E 005°34'0 0.0
2017-Aug-20 09:00N 60°42' E 005°34'0 0.1
2017-Aug-20 08:30N 60°42' E 005°34'0 0.1
2017-Aug-20 07:59N 60°42' E 005°34'0 0.1
2017-Aug-20 07:30N 60°42' E 005°34'0 0.2
2017-Aug-20 07:00N 60°41' E 005°34'0 0.2
2017-Aug-20 06:29N 60°41' E 005°34'0 0.6
2017-Aug-20 06:00N 60°41' E 005°34'3 5.5
2017-Aug-20 05:30N 60°38' E 005°35'3 6.0
2017-Aug-20 05:00N 60°37' E 005°30'4 7.0
2017-Aug-20 04:30N 60°34' E 005°24'510.3
2017-Aug-20 04:00N 60°31' E 005°16'510.3
2017-Aug-20 03:30N 60°26' E 005°16'5 9.9
2017-Aug-20 03:00N 60°22' E 005°10'510.9
2017-Aug-20 02:30N 60°16' E 005°10'510.6
2017-Aug-20 02:00N 60°11' E 005°11'5 9.8
2017-Aug-20 01:30N 60°09' E 005°02'5 9.1
2017-Aug-20 01:00N 60°07' E 004°54'3 5.8
2017-Aug-20 00:30N 60°09' E 004°51'3 6.6
2017-Aug-20 00:00N 60°13' E 004°49'0 0.4
2017-Aug-19 23:30N 60°13' E 004°49'510.1
2017-Aug-19 23:00N 60°08' E 004°51'510.3
2017-Aug-19 22:30N 60°03' E 004°52'5 9.7
2017-Aug-19 22:00N 59°58' E 004°53'1 2.4
2017-Aug-19 21:30N 59°59' E 004°53'3 5.9
2017-Aug-19 21:00N 60°02' E 004°53'3 5.6
2017-Aug-19 20:29N 60°05' E 004°53'3 6.2
2017-Aug-19 19:59N 60°08' E 004°52'3 6.1
2017-Aug-19 19:30N 60°11' E 004°52'1 2.5
2017-Aug-19 19:00N 60°10' E 004°53'510.0
2017-Aug-19 18:30N 60°05' E 004°53'510.1
2017-Aug-19 17:59N 59°60' E 004°53'1 2.7
2017-Aug-19 17:30N 60°01' E 004°52'3 5.1
2017-Aug-19 17:00N 60°03' E 004°52'3 5.3
2017-Aug-19 16:30N 60°06' E 004°51'3 5.0
2017-Aug-19 16:00N 60°08' E 004°50'3 5.1
2017-Aug-19 15:30N 60°11' E 004°50'3 5.4
2017-Aug-19 15:00N 60°14' E 004°49'6 5.6
2017-Aug-19 14:00N 60°19' E 004°48'5 9.6
2017-Aug-19 13:30N 60°15' E 004°49'5 9.6
2017-Aug-19 13:00N 60°10' E 004°50'5 9.7
2017-Aug-19 12:30N 60°05' E 004°51'5 9.7
2017-Aug-19 12:00N 60°00' E 004°52'3 6.3
2017-Aug-19 11:30N 59°57' E 004°52'3 6.1
2017-Aug-19 10:59N 60°00' E 004°53'3 5.9
2017-Aug-19 10:29N 60°03' E 004°53'3 5.8
2017-Aug-19 09:59N 60°06' E 004°53'3 5.5
2017-Aug-19 09:30N 60°09' E 004°53'3 5.3
2017-Aug-19 09:00N 60°11' E 004°52'2 4.3
2017-Aug-19 08:30N 60°13' E 004°51'2 3.8
2017-Aug-19 08:00N 60°15' E 004°50'2 3.8
2017-Aug-19 07:30N 60°17' E 004°49'0 0.3
2017-Aug-19 07:00N 60°17' E 004°48'510.8
2017-Aug-19 06:30N 60°12' E 004°51'510.3
2017-Aug-19 06:00N 60°07' E 004°53'0 0.6
2017-Aug-19 05:30N 60°06' E 004°53'3 5.3
2017-Aug-19 05:00N 60°09' E 004°52'3 5.1
2017-Aug-19 04:30N 60°11' E 004°50'3 5.5
2017-Aug-19 04:00N 60°14' E 004°50'2 3.4
2017-Aug-19 03:30N 60°16' E 004°49'510.4
2017-Aug-19 03:00N 60°11' E 004°51'510.4
2017-Aug-19 02:30N 60°06' E 004°53'510.0
2017-Aug-19 02:00N 60°01' E 004°54'5 9.9
2017-Aug-19 01:30N 59°56' E 004°52'5 9.7
2017-Aug-19 00:59N 59°51' E 004°50'5 9.5
2017-Aug-19 00:30N 59°46' E 004°49'5 9.4
2017-Aug-19 00:00N 59°42' E 004°48'5 9.3
2017-Aug-18 23:30N 59°37' E 004°46'5 9.4
2017-Aug-18 23:00N 59°33' E 004°44'36 9.0
2017-Aug-18 19:00N 58°56' E 004°43'4 8.8
2017-Aug-18 18:30N 58°52' E 004°44'4 8.8
2017-Aug-18 18:00N 58°48' E 004°42'5 9.1
2017-Aug-18 17:30N 58°43' E 004°43'4 9.1
2017-Aug-18 17:00N 58°39' E 004°43'33810.4
2017-Aug-17 08:30N 53°00' E 004°21'4110.4
2017-Aug-17 04:33N 52°28' E 003°40'0 9.7
2017-Aug-17 04:30N 52°28' E 003°40'5 9.9
2017-Aug-17 03:59N 52°23' E 003°37'5 9.8
2017-Aug-17 03:30N 52°18' E 003°35'5 9.8
2017-Aug-17 03:00N 52°14' E 003°32'5 9.8
2017-Aug-17 02:30N 52°09' E 003°28'915.0
2017-Aug-17 01:56N 52°01' E 003°24'2 3.9
2017-Aug-17 01:30N 51°59' E 003°24'510.4
2017-Aug-17 01:00N 51°54' E 003°22'510.8
2017-Aug-17 00:30N 51°49' E 003°19'713.1
2017-Aug-17 00:00N 51°43' E 003°18'4 7.9
2017-Aug-16 23:31N 51°39' E 003°20'612.0
2017-Aug-16 23:00N 51°34' E 003°25'612.2
2017-Aug-16 22:30N 51°29' E 003°30'510.3
2017-Aug-16 22:00N 51°26' E 003°37'612.5
2017-Aug-16 21:30N 51°22' E 003°45'3 6.3
2017-Aug-16 21:00N 51°20' E 003°49'0 0.1
2017-Aug-16 20:30N 51°20' E 003°49'3 5.1
2017-Aug-16 20:00N 51°18' E 003°50'4 7.4
2017-Aug-16 19:30N 51°14' E 003°49'4 8.2
2017-Aug-16 19:00N 51°10' E 003°47'0 0.4
2017-Aug-16 18:29N 51°10' E 003°47'0 0.0
2017-Aug-16 17:56N 51°10' E 003°47'0 0.0
2017-Aug-16 17:29N 51°10' E 003°47'0 0.0
2017-Aug-16 16:59N 51°10' E 003°47'0 0.0
2017-Aug-16 16:29N 51°10' E 003°47'0 0.0
2017-Aug-16 15:56N 51°10' E 003°47'0 0.0
2017-Aug-16 15:30N 51°10' E 003°47'0 0.0
2017-Aug-16 15:00N 51°10' E 003°47'0 0.0
2017-Aug-16 14:30N 51°10' E 003°47'0 0.0
2017-Aug-16 14:00N 51°10' E 003°47'0 0.0
2017-Aug-16 13:31N 51°10' E 003°47'0 0.0
2017-Aug-16 13:00N 51°10' E 003°47'0 0.0
2017-Aug-16 12:30N 51°10' E 003°47'0 0.0
2017-Aug-16 12:00N 51°10' E 003°47'0 0.0
2017-Aug-16 11:30N 51°10' E 003°47'0 0.0
2017-Aug-16 11:00N 51°10' E 003°47'0 0.0
2017-Aug-16 10:30N 51°10' E 003°47'0 0.0
2017-Aug-16 10:00N 51°10' E 003°47'0 0.0
2017-Aug-16 09:30N 51°10' E 003°47'0 0.0
2017-Aug-16 09:00N 51°10' E 003°47'0 0.0
2017-Aug-16 08:30N 51°10' E 003°47'0 0.0
2017-Aug-16 08:00N 51°10' E 003°47'0 0.0
2017-Aug-16 07:30N 51°10' E 003°47'0 0.0
2017-Aug-16 07:00N 51°10' E 003°47'0 0.0
2017-Aug-16 06:30N 51°10' E 003°47'0 0.0
2017-Aug-16 06:00N 51°10' E 003°47'0 0.0
2017-Aug-16 05:30N 51°10' E 003°47'0 0.0
2017-Aug-16 05:00N 51°10' E 003°47'0 0.0
2017-Aug-16 04:30N 51°10' E 003°47'0 0.0
2017-Aug-16 04:00N 51°10' E 003°47'0 0.0
2017-Aug-16 03:30N 51°10' E 003°47'0 0.0
2017-Aug-16 03:00N 51°10' E 003°47'0 0.0
2017-Aug-16 02:30N 51°10' E 003°47'0 0.0
2017-Aug-16 02:00N 51°10' E 003°47'0 0.0
2017-Aug-16 01:30N 51°10' E 003°47'0 0.0
2017-Aug-16 01:00N 51°10' E 003°47'0 0.0
2017-Aug-16 00:30N 51°10' E 003°47'0 0.0
2017-Aug-16 00:01N 51°10' E 003°47'0 0.0
2017-Aug-15 23:31N 51°10' E 003°47'0 0.0
2017-Aug-15 23:00N 51°10' E 003°47'0 0.2
2017-Aug-15 22:30N 51°10' E 003°47'2 4.8
2017-Aug-15 22:01N 51°12' E 003°48'3 5.2
2017-Aug-15 21:31N 51°15' E 003°49'3 6.4
2017-Aug-15 21:00N 51°18' E 003°50'2 4.7
2017-Aug-15 20:30N 51°20' E 003°49'0 0.9
2017-Aug-15 20:00N 51°20' E 003°49'1 2.4
2017-Aug-15 19:30N 51°21' E 003°47'510.0
2017-Aug-15 19:00N 51°24' E 003°41'510.2
2017-Aug-15 18:30N 51°25' E 003°33'612.0
2017-Aug-15 18:00N 51°24' E 003°24'612.0
2017-Aug-15 17:30N 51°23' E 003°14'611.9
2017-Aug-15 17:00N 51°22' E 003°05'611.1
2017-Aug-15 16:30N 51°22' E 002°56'611.2
2017-Aug-15 16:00N 51°22' E 002°47'510.4
2017-Aug-15 15:30N 51°22' E 002°39'510.1
2017-Aug-15 15:00N 51°22' E 002°31'5 9.2
2017-Aug-15 14:30N 51°20' E 002°24'5 9.1
2017-Aug-15 14:00N 51°18' E 002°17'6 8.6
2017-Aug-15 13:20N 51°15' E 002°10'3 8.3
2017-Aug-15 13:00N 51°13' E 002°06'4 8.2
2017-Aug-15 12:30N 51°11' E 002°00'4 8.1
2017-Aug-15 12:00N 51°09' E 001°55'4 8.1
2017-Aug-15 11:30N 51°07' E 001°49'4 8.0
2017-Aug-15 11:00N 51°04' E 001°45'4 8.3
2017-Aug-15 10:30N 51°01' E 001°40'71 9.5
2017-Aug-15 03:03N 50°22' E 000°07'311.3
2017-Aug-15 02:48N 50°21' E 000°03'311.4
2017-Aug-15 02:30N 50°20' W 000°03'611.6
2017-Aug-15 01:58N 50°19' W 000°12'612.0
2017-Aug-15 01:30N 50°17' W 000°21'612.3
2017-Aug-15 01:00N 50°16' W 000°30'1612.3
2017-Aug-14 23:41N 50°12' W 000°55'212.0
2017-Aug-14 23:29N 50°11' W 000°58'611.8
2017-Aug-14 23:00N 50°10' W 001°07'611.3
2017-Aug-14 22:30N 50°08' W 001°15'510.7
2017-Aug-14 22:00N 50°07' W 001°23'510.0
2017-Aug-14 21:31N 50°05' W 001°31'5 9.3
2017-Aug-14 21:00N 50°04' W 001°38'4 8.6
2017-Aug-14 20:30N 50°03' W 001°44'4 7.9
2017-Aug-14 20:00N 50°02' W 001°50'4 7.4
2017-Aug-14 19:30N 50°01' W 001°56'3 6.8
2017-Aug-14 19:00N 50°00' W 002°01'3 6.5
2017-Aug-14 18:30N 49°60' W 002°06'3 6.4
2017-Aug-14 18:00N 49°59' W 002°10'3 6.5
2017-Aug-14 17:30N 49°58' W 002°15'3 7.1
2017-Aug-14 17:00N 49°57' W 002°21'4 7.8
2017-Aug-14 16:30N 49°56' W 002°26'4 8.4
2017-Aug-14 16:00N 49°55' W 002°33'4 8.9
2017-Aug-14 15:30N 49°54' W 002°39'5 9.2
2017-Aug-14 15:00N 49°53' W 002°46'5 9.7
2017-Aug-14 14:30N 49°52' W 002°54'5 9.9
2017-Aug-14 14:00N 49°52' W 003°01'510.2
2017-Aug-14 13:30N 49°52' W 003°09'510.2
2017-Aug-14 13:00N 49°52' W 003°17'510.3
2017-Aug-14 12:30N 49°52' W 003°25'510.4
2017-Aug-14 12:00N 49°52' W 003°33'510.4
2017-Aug-14 11:30N 49°52' W 003°41'510.4
2017-Aug-14 11:00N 49°52' W 003°49'510.4
2017-Aug-14 10:30N 49°53' W 003°57'610.5
2017-Aug-14 09:59N 49°53' W 004°06'1110.4
2017-Aug-14 08:54N 49°53' W 004°23'510.3
2017-Aug-14 08:25N 49°53' W 004°31'510.3
2017-Aug-14 07:59N 49°53' W 004°38'136 7.1
2017-Aug-13 12:46N 52°01' W 005°54'2 7.6
2017-Aug-13 12:29N 52°03' W 005°53'3 7.3
2017-Aug-13 12:00N 52°06' W 005°52'4 7.1
2017-Aug-13 11:30N 52°10' W 005°51'4 7.4
2017-Aug-13 11:00N 52°13' W 005°51'4 7.5
2017-Aug-13 10:30N 52°17' W 005°50'4 7.8
2017-Aug-13 10:00N 52°21' W 005°49'4 8.1
2017-Aug-13 09:30N 52°25' W 005°48'  

Dump ship's entire track history